createdAt,value
2023-02-16T00:01:52.122Z,-5.79
2023-02-16T00:04:24.809Z,-5.82
2023-02-16T00:06:53.093Z,-5.84
2023-02-16T00:09:20.986Z,-5.82
2023-02-16T00:12:07.661Z,-5.90
2023-02-16T00:14:36.647Z,-5.81
2023-02-16T00:17:05.240Z,-5.85
2023-02-16T00:19:38.852Z,-5.84
2023-02-16T00:22:06.865Z,-5.81
2023-02-16T00:24:33.712Z,-5.88
2023-02-16T00:27:01.940Z,-5.82
2023-02-16T00:29:34.884Z,-5.81
2023-02-16T00:32:04.028Z,-5.83
2023-02-16T00:34:32.433Z,-5.81
2023-02-16T00:37:01.697Z,-5.80
2023-02-16T00:39:29.292Z,-5.82
2023-02-16T00:42:00.134Z,-5.77
2023-02-16T00:44:41.684Z,-5.81
2023-02-16T00:47:39.080Z,-5.76
2023-02-16T00:50:45.311Z,-5.74
2023-02-16T00:53:11.964Z,-5.72
2023-02-16T00:55:40.568Z,-5.69
2023-02-16T00:58:16.405Z,-5.71
2023-02-16T01:00:55.264Z,-5.72
2023-02-16T01:03:28.221Z,-5.69
2023-02-16T01:06:15.382Z,-5.71
2023-02-16T01:09:02.172Z,-5.69
2023-02-16T01:11:29.237Z,-5.71
2023-02-16T01:13:57.079Z,-5.73
2023-02-16T01:16:28.519Z,-5.71
2023-02-16T01:18:55.107Z,-5.73
2023-02-16T01:21:22.084Z,-5.80
2023-02-16T01:23:49.237Z,-5.84
2023-02-16T01:26:18.695Z,-5.95
2023-02-16T01:28:45.879Z,-5.90
2023-02-16T01:31:14.601Z,-5.97
2023-02-16T01:33:43.895Z,-6.02
2023-02-16T01:36:26.787Z,-6.08
2023-02-16T01:38:53.487Z,-6.20
2023-02-16T01:41:47.048Z,-6.32
2023-02-16T01:44:21.378Z,-6.46
2023-02-16T01:47:25.023Z,-6.58
2023-02-16T01:49:51.637Z,-6.70
2023-02-16T01:52:41.937Z,-6.69
2023-02-16T01:55:25.435Z,-6.84
2023-02-16T01:58:01.553Z,-6.90
2023-02-16T02:00:49.678Z,-6.95
2023-02-16T02:03:42.299Z,-7.00
2023-02-16T02:06:14.920Z,-6.96
2023-02-16T02:08:44.266Z,-6.93
2023-02-16T02:11:30.399Z,-6.88
2023-02-16T02:14:10.187Z,-6.82
2023-02-16T02:16:37.119Z,-6.79
2023-02-16T02:19:03.968Z,-6.80
2023-02-16T02:22:19.295Z,-6.82
2023-02-16T02:24:54.985Z,-6.94
2023-02-16T02:27:26.584Z,-7.06
2023-02-16T02:30:02.477Z,-7.15
2023-02-16T02:32:56.274Z,-7.23
2023-02-16T02:35:38.324Z,-7.22
2023-02-16T02:38:12.095Z,-7.21
2023-02-16T02:40:59.176Z,-7.28
2023-02-16T02:43:37.929Z,-7.35
2023-02-16T02:46:24.824Z,-7.41
2023-02-16T02:48:51.818Z,-7.46
2023-02-16T02:51:30.946Z,-7.53
2023-02-16T02:54:18.344Z,-7.54
2023-02-16T02:57:13.015Z,-7.57
2023-02-16T03:00:01.231Z,-7.53
2023-02-16T03:02:30.536Z,-7.47
2023-02-16T03:04:58.812Z,-7.55
2023-02-16T03:07:46.674Z,-7.55
2023-02-16T03:10:39.266Z,-7.49
2023-02-16T03:13:13.009Z,-7.46
2023-02-16T03:15:41.057Z,-7.52
2023-02-16T03:18:31.565Z,-7.45
2023-02-16T03:21:17.466Z,-7.47
2023-02-16T03:24:03.832Z,-7.53
2023-02-16T03:26:50.720Z,-7.46
2023-02-16T03:29:18.746Z,-7.42
2023-02-16T03:31:46.616Z,-7.38
2023-02-16T03:34:14.656Z,-7.30
2023-02-16T03:36:43.540Z,-7.24
2023-02-16T03:39:11.597Z,-7.20
2023-02-16T03:41:49.841Z,-7.32
2023-02-16T03:44:16.684Z,-7.19
2023-02-16T03:46:43.376Z,-7.19
2023-02-16T03:49:10.203Z,-7.20
2023-02-16T03:51:37.263Z,-7.31
2023-02-16T03:54:03.922Z,-7.40
2023-02-16T03:56:30.556Z,-7.51
2023-02-16T03:58:57.145Z,-7.58
2023-02-16T04:01:23.792Z,-7.64
2023-02-16T04:03:51.511Z,-7.60
2023-02-16T04:06:18.187Z,-7.65
2023-02-16T04:08:44.783Z,-7.70
2023-02-16T20:50:08.797Z,-5.89
2023-02-16T20:52:35.905Z,-5.78
2023-02-16T20:55:02.554Z,-5.63
2023-02-16T20:57:29.214Z,-5.44
2023-02-16T20:59:56.240Z,-5.30
2023-02-16T21:02:23.173Z,-5.17
2023-02-16T21:04:50.642Z,-5.13
2023-02-16T21:07:17.295Z,-5.08
2023-02-16T21:09:44.104Z,-4.93
2023-02-16T21:12:12.271Z,-4.91
2023-02-16T21:14:38.887Z,-4.77
2023-02-16T21:17:05.513Z,-4.68
2023-02-16T21:19:32.228Z,-4.64
2023-02-16T21:21:58.811Z,-4.64
2023-02-16T21:24:25.405Z,-4.64
2023-02-16T21:26:52.018Z,-4.51
2023-02-16T21:29:18.702Z,-4.47
2023-02-16T21:31:45.573Z,-4.46
2023-02-16T21:34:12.635Z,-4.41
2023-02-16T21:36:39.346Z,-4.32
2023-02-16T21:39:06.498Z,-4.34
2023-02-16T21:41:33.178Z,-4.32
2023-02-16T21:44:02.499Z,-4.36
2023-02-16T21:46:32.153Z,-4.30
2023-02-16T21:48:59.390Z,-4.29
2023-02-16T21:51:32.078Z,-4.27
2023-02-16T21:53:59.286Z,-4.25
2023-02-16T21:56:42.653Z,-4.28
2023-02-16T21:59:12.665Z,-4.16
2023-02-16T22:01:44.448Z,-4.17
2023-02-16T22:04:13.112Z,-4.14
2023-02-16T22:06:42.198Z,-4.14
2023-02-16T22:09:12.429Z,-4.09
2023-02-16T22:11:39.287Z,-4.11
2023-02-16T22:14:06.417Z,-4.18
2023-02-16T22:16:35.346Z,-4.13
2023-02-16T22:19:08.822Z,-4.22
2023-02-16T22:21:39.658Z,-4.15
2023-02-16T22:24:06.917Z,-4.18
2023-02-16T22:26:35.649Z,-4.29
2023-02-16T22:29:06.125Z,-4.24
2023-02-16T22:31:33.360Z,-4.28
2023-02-16T22:34:06.712Z,-4.43
2023-02-16T22:36:47.123Z,-4.33
2023-02-16T22:39:17.313Z,-4.31
2023-02-16T22:41:43.964Z,-4.31
2023-02-16T22:44:15.088Z,-4.34
2023-02-16T22:46:42.645Z,-4.47
2023-02-16T22:49:10.811Z,-4.35
2023-02-16T22:51:37.623Z,-4.38
2023-02-16T22:54:05.319Z,-4.30
2023-02-16T22:56:32.949Z,-4.31
2023-02-16T22:59:00.386Z,-4.37
2023-02-16T23:01:29.970Z,-4.36
2023-02-16T23:03:58.495Z,-4.37
2023-02-16T23:06:36.828Z,-4.42
2023-02-16T23:09:08.083Z,-4.42
2023-02-16T23:11:35.713Z,-4.40
2023-02-16T23:14:02.795Z,-4.40
2023-02-16T23:16:29.674Z,-4.37
2023-02-16T23:18:58.671Z,-4.40
2023-02-16T23:21:31.198Z,-4.39
2023-02-16T23:23:58.907Z,-4.33
2023-02-16T23:26:27.941Z,-4.33
2023-02-16T23:28:57.791Z,-4.36
2023-02-16T23:31:24.594Z,-4.38
2023-02-16T23:33:51.710Z,-4.41
2023-02-16T23:36:18.468Z,-4.37
2023-02-16T23:38:45.076Z,-4.33
2023-02-16T23:41:13.711Z,-4.28
2023-02-16T23:43:41.280Z,-4.25
2023-02-16T23:46:08.818Z,-4.22
2023-02-16T23:48:36.200Z,-4.27
2023-02-16T23:51:02.845Z,-4.21
2023-02-16T23:53:29.502Z,-4.23
2023-02-16T23:56:23.477Z,-4.24
2023-02-16T23:58:50.622Z,-4.31
